LFLP

Annecy-Haute-Savoie-Mont Blanc Airport

Airport
ICAO code
LFLP
IATA Code
NCY
Summary
ICAO Region
EUR
ICAO Territory
Location

, Rhone-Alpes

Serving
Annecy
Elevation
1521 ft
Coordinates
45° 55' 45" N , 6° 5' 56" E
Metar
LFLP 300930Z AUTO 22006KT 180V270 9999 BKN017 OVC024 17/14 Q1010 TEMPO RA BKN010

Runways

Designator Length Width Surface Rops
4/22 1630 30 ASP Yes/Yes

Airport map

Aerial View

SKYbrary Partners:

Safety knowledge contributed by: